sensor_id;sensor_type;location;lat;lon;timestamp;temperature;humidity
21830;DHT22;11077;50.264;6.798;2023-11-21T00:00:16;7.00;99.90
21830;DHT22;11077;50.264;6.798;2023-11-21T00:02:44;7.00;99.90
21830;DHT22;11077;50.264;6.798;2023-11-21T00:05:13;7.00;99.90
21830;DHT22;11077;50.264;6.798;2023-11-21T00:07:41;7.00;99.90
21830;DHT22;11077;50.264;6.798;2023-11-21T00:10:09;7.00;99.90
21830;DHT22;11077;50.264;6.798;2023-11-21T00:12:36;6.90;99.90
21830;DHT22;11077;50.264;6.798;2023-11-21T00:15:04;6.90;99.90
21830;DHT22;11077;50.264;6.798;2023-11-21T00:17:36;6.90;99.90
21830;DHT22;11077;50.264;6.798;2023-11-21T00:20:05;6.90;99.90
21830;DHT22;11077;50.264;6.798;2023-11-21T00:22:33;6.90;99.90
21830;DHT22;11077;50.264;6.798;2023-11-21T00:25:00;6.90;99.90
21830;DHT22;11077;50.264;6.798;2023-11-21T00:27:28;6.90;99.90
21830;DHT22;11077;50.264;6.798;2023-11-21T00:29:55;6.90;99.90
21830;DHT22;11077;50.264;6.798;2023-11-21T00:32:22;6.90;99.90
21830;DHT22;11077;50.264;6.798;2023-11-21T00:34:51;6.90;99.90
21830;DHT22;11077;50.264;6.798;2023-11-21T00:37:18;6.90;99.90
21830;DHT22;11077;50.264;6.798;2023-11-21T00:39:45;6.90;99.90
21830;DHT22;11077;50.264;6.798;2023-11-21T00:42:13;6.90;99.90
21830;DHT22;11077;50.264;6.798;2023-11-21T00:44:40;6.90;99.90
21830;DHT22;11077;50.264;6.798;2023-11-21T00:47:08;6.90;99.90
21830;DHT22;11077;50.264;6.798;2023-11-21T00:49:35;6.90;99.90
21830;DHT22;11077;50.264;6.798;2023-11-21T00:52:06;6.80;99.90
21830;DHT22;11077;50.264;6.798;2023-11-21T00:54:34;6.80;99.90
21830;DHT22;11077;50.264;6.798;2023-11-21T00:57:01;6.80;99.90
21830;DHT22;11077;50.264;6.798;2023-11-21T00:59:29;6.80;99.90
21830;DHT22;11077;50.264;6.798;2023-11-21T01:01:56;6.80;99.90
21830;DHT22;11077;50.264;6.798;2023-11-21T01:04:26;6.80;99.90
21830;DHT22;11077;50.264;6.798;2023-11-21T01:06:54;6.80;99.90
21830;DHT22;11077;50.264;6.798;2023-11-21T01:09:22;6.80;99.90
21830;DHT22;11077;50.264;6.798;2023-11-21T01:11:51;6.70;99.90
21830;DHT22;11077;50.264;6.798;2023-11-21T01:14:19;6.70;99.90
21830;DHT22;11077;50.264;6.798;2023-11-21T01:16:46;6.70;99.90
21830;DHT22;11077;50.264;6.798;2023-11-21T01:19:14;6.70;99.90
21830;DHT22;11077;50.264;6.798;2023-11-21T01:21:41;6.70;99.90
21830;DHT22;11077;50.264;6.798;2023-11-21T01:24:09;6.70;99.90
21830;DHT22;11077;50.264;6.798;2023-11-21T01:26:38;6.70;99.90
21830;DHT22;11077;50.264;6.798;2023-11-21T01:29:05;6.60;99.90
21830;DHT22;11077;50.264;6.798;2023-11-21T01:31:32;6.60;99.90
21830;DHT22;11077;50.264;6.798;2023-11-21T01:33:59;6.60;99.90
21830;DHT22;11077;50.264;6.798;2023-11-21T01:36:30;6.60;99.90
21830;DHT22;11077;50.264;6.798;2023-11-21T01:38:58;6.60;99.90
21830;DHT22;11077;50.264;6.798;2023-11-21T01:41:26;6.60;99.90
21830;DHT22;11077;50.264;6.798;2023-11-21T01:43:55;6.60;99.90
21830;DHT22;11077;50.264;6.798;2023-11-21T01:46:23;6.60;99.90
21830;DHT22;11077;50.264;6.798;2023-11-21T01:48:50;6.60;99.90
21830;DHT22;11077;50.264;6.798;2023-11-21T01:51:18;6.60;99.90
21830;DHT22;11077;50.264;6.798;2023-11-21T01:53:46;6.60;99.90
21830;DHT22;11077;50.264;6.798;2023-11-21T01:56:14;6.60;99.90
21830;DHT22;11077;50.264;6.798;2023-11-21T01:58:42;6.60;99.90
21830;DHT22;11077;50.264;6.798;2023-11-21T02:01:11;6.60;99.90
21830;DHT22;11077;50.264;6.798;2023-11-21T02:03:39;6.60;99.90
21830;DHT22;11077;50.264;6.798;2023-11-21T02:06:08;6.60;99.90
21830;DHT22;11077;50.264;6.798;2023-11-21T02:08:35;6.60;99.90
21830;DHT22;11077;50.264;6.798;2023-11-21T02:11:04;6.60;99.90
21830;DHT22;11077;50.264;6.798;2023-11-21T02:13:31;6.60;99.90
21830;DHT22;11077;50.264;6.798;2023-11-21T02:15:58;6.60;99.90
21830;DHT22;11077;50.264;6.798;2023-11-21T02:18:27;6.50;99.90
21830;DHT22;11077;50.264;6.798;2023-11-21T02:20:55;6.60;99.90
21830;DHT22;11077;50.264;6.798;2023-11-21T02:23:24;6.50;99.90
21830;DHT22;11077;50.264;6.798;2023-11-21T02:25:54;6.60;99.90
21830;DHT22;11077;50.264;6.798;2023-11-21T02:28:22;6.60;99.90
21830;DHT22;11077;50.264;6.798;2023-11-21T02:30:52;6.50;99.90
21830;DHT22;11077;50.264;6.798;2023-11-21T02:33:21;6.50;99.90
21830;DHT22;11077;50.264;6.798;2023-11-21T02:35:48;6.50;99.90
21830;DHT22;11077;50.264;6.798;2023-11-21T02:38:17;6.50;99.90
21830;DHT22;11077;50.264;6.798;2023-11-21T02:40:47;6.50;99.90
21830;DHT22;11077;50.264;6.798;2023-11-21T02:43:14;6.50;99.90
21830;DHT22;11077;50.264;6.798;2023-11-21T02:45:42;6.50;99.90
21830;DHT22;11077;50.264;6.798;2023-11-21T02:59:35;6.40;99.90
21830;DHT22;11077;50.264;6.798;2023-11-21T03:02:03;6.40;99.90
21830;DHT22;11077;50.264;6.798;2023-11-21T03:04:30;6.30;99.90
21830;DHT22;11077;50.264;6.798;2023-11-21T03:06:58;6.40;99.90
21830;DHT22;11077;50.264;6.798;2023-11-21T03:09:25;6.40;99.90
21830;DHT22;11077;50.264;6.798;2023-11-21T03:11:53;6.40;99.90
21830;DHT22;11077;50.264;6.798;2023-11-21T03:14:21;6.30;99.90
21830;DHT22;11077;50.264;6.798;2023-11-21T03:16:49;6.30;99.90
21830;DHT22;11077;50.264;6.798;2023-11-21T03:19:17;6.30;99.90
21830;DHT22;11077;50.264;6.798;2023-11-21T03:21:44;6.40;99.90
21830;DHT22;11077;50.264;6.798;2023-11-21T03:24:11;6.40;99.90
21830;DHT22;11077;50.264;6.798;2023-11-21T03:26:38;6.40;99.90
21830;DHT22;11077;50.264;6.798;2023-11-21T03:29:05;6.40;99.90
21830;DHT22;11077;50.264;6.798;2023-11-21T03:31:33;6.30;99.90
21830;DHT22;11077;50.264;6.798;2023-11-21T03:34:01;6.30;99.90
21830;DHT22;11077;50.264;6.798;2023-11-21T03:36:29;6.30;99.90
21830;DHT22;11077;50.264;6.798;2023-11-21T03:38:56;6.30;99.90
21830;DHT22;11077;50.264;6.798;2023-11-21T03:41:23;6.30;99.90
21830;DHT22;11077;50.264;6.798;2023-11-21T03:43:51;6.30;99.90
21830;DHT22;11077;50.264;6.798;2023-11-21T03:46:18;6.30;99.90
21830;DHT22;11077;50.264;6.798;2023-11-21T03:48:45;6.30;99.90
21830;DHT22;11077;50.264;6.798;2023-11-21T03:51:14;6.20;99.90
21830;DHT22;11077;50.264;6.798;2023-11-21T03:53:41;6.30;99.90
21830;DHT22;11077;50.264;6.798;2023-11-21T03:56:10;6.30;99.90
21830;DHT22;11077;50.264;6.798;2023-11-21T03:58:39;6.30;99.90
21830;DHT22;11077;50.264;6.798;2023-11-21T04:01:06;6.30;99.90
21830;DHT22;11077;50.264;6.798;2023-11-21T04:03:33;6.20;99.90
21830;DHT22;11077;50.264;6.798;2023-11-21T04:06:00;6.20;99.90
21830;DHT22;11077;50.264;6.798;2023-11-21T04:08:29;6.20;99.90
21830;DHT22;11077;50.264;6.798;2023-11-21T04:10:56;6.20;99.90
21830;DHT22;11077;50.264;6.798;2023-11-21T04:13:24;6.20;99.90
21830;DHT22;11077;50.264;6.798;2023-11-21T04:15:51;6.20;99.90
21830;DHT22;11077;50.264;6.798;2023-11-21T04:18:18;6.20;99.90
21830;DHT22;11077;50.264;6.798;2023-11-21T04:20:45;6.20;99.90
21830;DHT22;11077;50.264;6.798;2023-11-21T04:23:12;6.20;99.90
21830;DHT22;11077;50.264;6.798;2023-11-21T04:25:41;6.20;99.90
21830;DHT22;11077;50.264;6.798;2023-11-21T04:28:08;6.20;99.90
21830;DHT22;11077;50.264;6.798;2023-11-21T04:30:35;6.20;99.90
21830;DHT22;11077;50.264;6.798;2023-11-21T04:33:02;6.20;99.90
21830;DHT22;11077;50.264;6.798;2023-11-21T04:35:30;6.10;99.90
21830;DHT22;11077;50.264;6.798;2023-11-21T04:37:57;6.20;99.90
21830;DHT22;11077;50.264;6.798;2023-11-21T04:40:25;6.20;99.90
21830;DHT22;11077;50.264;6.798;2023-11-21T04:42:54;6.20;99.90
21830;DHT22;11077;50.264;6.798;2023-11-21T04:45:22;6.10;99.90
21830;DHT22;11077;50.264;6.798;2023-11-21T04:47:50;6.10;99.90
21830;DHT22;11077;50.264;6.798;2023-11-21T04:50:18;6.20;99.90
21830;DHT22;11077;50.264;6.798;2023-11-21T04:52:46;6.10;99.90
21830;DHT22;11077;50.264;6.798;2023-11-21T04:55:13;6.20;99.90
21830;DHT22;11077;50.264;6.798;2023-11-21T04:57:41;6.20;99.90
21830;DHT22;11077;50.264;6.798;2023-11-21T05:00:11;6.10;99.90
21830;DHT22;11077;50.264;6.798;2023-11-21T05:02:39;6.20;99.90
21830;DHT22;11077;50.264;6.798;2023-11-21T05:05:07;6.20;99.90
21830;DHT22;11077;50.264;6.798;2023-11-21T05:07:36;6.20;99.90
21830;DHT22;11077;50.264;6.798;2023-11-21T05:10:04;6.10;99.90
21830;DHT22;11077;50.264;6.798;2023-11-21T05:12:34;6.10;99.90
21830;DHT22;11077;50.264;6.798;2023-11-21T05:15:04;6.20;99.90
21830;DHT22;11077;50.264;6.798;2023-11-21T05:17:37;6.10;99.90
21830;DHT22;11077;50.264;6.798;2023-11-21T05:20:05;6.20;99.90
21830;DHT22;11077;50.264;6.798;2023-11-21T05:22:34;6.20;99.90
21830;DHT22;11077;50.264;6.798;2023-11-21T05:25:02;6.10;99.90
21830;DHT22;11077;50.264;6.798;2023-11-21T05:27:29;6.10;99.90
21830;DHT22;11077;50.264;6.798;2023-11-21T05:29:57;6.10;99.90
21830;DHT22;11077;50.264;6.798;2023-11-21T05:32:24;6.10;99.90
21830;DHT22;11077;50.264;6.798;2023-11-21T05:34:53;6.10;99.90
21830;DHT22;11077;50.264;6.798;2023-11-21T05:37:21;6.10;99.90
21830;DHT22;11077;50.264;6.798;2023-11-21T05:39:49;6.10;99.90
21830;DHT22;11077;50.264;6.798;2023-11-21T05:42:16;6.10;99.90
21830;DHT22;11077;50.264;6.798;2023-11-21T05:44:43;6.10;99.90
21830;DHT22;11077;50.264;6.798;2023-11-21T05:47:11;6.10;99.90
21830;DHT22;11077;50.264;6.798;2023-11-21T05:49:39;6.10;99.90
21830;DHT22;11077;50.264;6.798;2023-11-21T05:52:07;6.20;99.90
21830;DHT22;11077;50.264;6.798;2023-11-21T05:54:36;6.10;99.90
21830;DHT22;11077;50.264;6.798;2023-11-21T05:57:03;6.20;99.90
21830;DHT22;11077;50.264;6.798;2023-11-21T05:59:30;6.20;99.90
21830;DHT22;11077;50.264;6.798;2023-11-21T06:01:57;6.20;99.90
21830;DHT22;11077;50.264;6.798;2023-11-21T06:04:25;6.10;99.90
21830;DHT22;11077;50.264;6.798;2023-11-21T06:06:52;6.20;99.90
21830;DHT22;11077;50.264;6.798;2023-11-21T06:09:21;6.10;99.90
21830;DHT22;11077;50.264;6.798;2023-11-21T06:11:48;6.20;99.90
21830;DHT22;11077;50.264;6.798;2023-11-21T06:14:15;6.10;99.90
21830;DHT22;11077;50.264;6.798;2023-11-21T06:16:43;6.10;99.90
21830;DHT22;11077;50.264;6.798;2023-11-21T06:19:11;6.10;99.90
21830;DHT22;11077;50.264;6.798;2023-11-21T06:21:38;6.10;99.90
21830;DHT22;11077;50.264;6.798;2023-11-21T06:24:06;6.20;99.90
21830;DHT22;11077;50.264;6.798;2023-11-21T06:26:35;6.20;99.90
21830;DHT22;11077;50.264;6.798;2023-11-21T06:29:02;6.10;99.90
21830;DHT22;11077;50.264;6.798;2023-11-21T06:31:29;6.10;99.90
21830;DHT22;11077;50.264;6.798;2023-11-21T06:33:58;6.10;99.90
21830;DHT22;11077;50.264;6.798;2023-11-21T06:36:26;6.10;99.90
21830;DHT22;11077;50.264;6.798;2023-11-21T06:38:55;6.20;99.90
21830;DHT22;11077;50.264;6.798;2023-11-21T06:41:23;6.20;99.90
21830;DHT22;11077;50.264;6.798;2023-11-21T06:43:52;6.20;99.90
21830;DHT22;11077;50.264;6.798;2023-11-21T06:46:19;6.20;99.90
21830;DHT22;11077;50.264;6.798;2023-11-21T06:48:46;6.20;99.90
21830;DHT22;11077;50.264;6.798;2023-11-21T06:51:15;6.20;99.90
21830;DHT22;11077;50.264;6.798;2023-11-21T06:53:42;6.20;99.90
21830;DHT22;11077;50.264;6.798;2023-11-21T06:56:16;6.10;99.90
21830;DHT22;11077;50.264;6.798;2023-11-21T06:58:43;6.20;99.90
21830;DHT22;11077;50.264;6.798;2023-11-21T07:01:14;6.10;99.90
21830;DHT22;11077;50.264;6.798;2023-11-21T07:03:41;6.10;99.90
21830;DHT22;11077;50.264;6.798;2023-11-21T07:06:08;6.10;99.90
21830;DHT22;11077;50.264;6.798;2023-11-21T07:08:36;6.10;99.90
21830;DHT22;11077;50.264;6.798;2023-11-21T07:11:03;6.10;99.90
21830;DHT22;11077;50.264;6.798;2023-11-21T07:13:30;6.10;99.90
21830;DHT22;11077;50.264;6.798;2023-11-21T07:15:58;6.10;99.90
21830;DHT22;11077;50.264;6.798;2023-11-21T07:18:27;6.10;99.90
21830;DHT22;11077;50.264;6.798;2023-11-21T07:20:54;6.10;99.90
21830;DHT22;11077;50.264;6.798;2023-11-21T07:23:21;6.10;99.90
21830;DHT22;11077;50.264;6.798;2023-11-21T07:25:49;6.10;99.90
21830;DHT22;11077;50.264;6.798;2023-11-21T07:28:16;6.10;99.90
21830;DHT22;11077;50.264;6.798;2023-11-21T07:30:43;6.10;99.90
21830;DHT22;11077;50.264;6.798;2023-11-21T07:33:11;6.10;99.90
21830;DHT22;11077;50.264;6.798;2023-11-21T07:35:39;6.20;99.90
21830;DHT22;11077;50.264;6.798;2023-11-21T07:38:07;6.10;99.90
21830;DHT22;11077;50.264;6.798;2023-11-21T07:40:34;6.10;99.90
21830;DHT22;11077;50.264;6.798;2023-11-21T07:43:01;6.10;99.90
21830;DHT22;11077;50.264;6.798;2023-11-21T07:45:28;6.10;99.90
21830;DHT22;11077;50.264;6.798;2023-11-21T07:47:57;6.20;99.90
21830;DHT22;11077;50.264;6.798;2023-11-21T07:50:24;6.20;99.90
21830;DHT22;11077;50.264;6.798;2023-11-21T07:52:54;6.10;99.90
21830;DHT22;11077;50.264;6.798;2023-11-21T07:55:21;6.20;99.90
21830;DHT22;11077;50.264;6.798;2023-11-21T07:57:48;6.20;99.90
21830;DHT22;11077;50.264;6.798;2023-11-21T08:00:16;6.20;99.90
21830;DHT22;11077;50.264;6.798;2023-11-21T08:02:44;6.20;99.90
21830;DHT22;11077;50.264;6.798;2023-11-21T08:05:12;6.10;99.90
21830;DHT22;11077;50.264;6.798;2023-11-21T08:07:39;6.20;99.90
21830;DHT22;11077;50.264;6.798;2023-11-21T08:10:09;6.20;99.90
21830;DHT22;11077;50.264;6.798;2023-11-21T08:12:37;6.20;99.90
21830;DHT22;11077;50.264;6.798;2023-11-21T08:15:06;6.20;99.90
21830;DHT22;11077;50.264;6.798;2023-11-21T08:17:34;6.20;99.90
21830;DHT22;11077;50.264;6.798;2023-11-21T08:20:01;6.20;99.90
21830;DHT22;11077;50.264;6.798;2023-11-21T08:22:29;6.20;99.90
21830;DHT22;11077;50.264;6.798;2023-11-21T08:24:57;6.20;99.90
21830;DHT22;11077;50.264;6.798;2023-11-21T08:27:26;6.20;99.90
21830;DHT22;11077;50.264;6.798;2023-11-21T08:29:53;6.20;99.90
21830;DHT22;11077;50.264;6.798;2023-11-21T08:32:22;6.30;99.90
21830;DHT22;11077;50.264;6.798;2023-11-21T08:34:49;6.30;99.90
21830;DHT22;11077;50.264;6.798;2023-11-21T08:37:17;6.30;99.90
21830;DHT22;11077;50.264;6.798;2023-11-21T08:39:45;6.30;99.90
21830;DHT22;11077;50.264;6.798;2023-11-21T08:42:14;6.30;99.90
21830;DHT22;11077;50.264;6.798;2023-11-21T08:44:42;6.30;99.90
21830;DHT22;11077;50.264;6.798;2023-11-21T08:47:09;6.30;99.90
21830;DHT22;11077;50.264;6.798;2023-11-21T08:49:37;6.30;99.90
21830;DHT22;11077;50.264;6.798;2023-11-21T08:52:04;6.30;99.90
21830;DHT22;11077;50.264;6.798;2023-11-21T08:54:32;6.30;99.90
21830;DHT22;11077;50.264;6.798;2023-11-21T08:57:00;6.30;99.90
21830;DHT22;11077;50.264;6.798;2023-11-21T08:59:27;6.40;99.90
21830;DHT22;11077;50.264;6.798;2023-11-21T09:01:56;6.40;99.90
21830;DHT22;11077;50.264;6.798;2023-11-21T09:04:23;6.40;99.90
21830;DHT22;11077;50.264;6.798;2023-11-21T09:06:50;6.40;99.90
21830;DHT22;11077;50.264;6.798;2023-11-21T09:09:17;6.40;99.90
21830;DHT22;11077;50.264;6.798;2023-11-21T09:11:45;6.50;99.90
21830;DHT22;11077;50.264;6.798;2023-11-21T09:14:15;6.50;99.90
21830;DHT22;11077;50.264;6.798;2023-11-21T09:16:43;6.50;99.90
21830;DHT22;11077;50.264;6.798;2023-11-21T09:19:12;6.50;99.90
21830;DHT22;11077;50.264;6.798;2023-11-21T09:21:41;6.50;99.90
21830;DHT22;11077;50.264;6.798;2023-11-21T09:24:08;6.60;99.90
21830;DHT22;11077;50.264;6.798;2023-11-21T09:26:36;6.60;99.90
21830;DHT22;11077;50.264;6.798;2023-11-21T09:29:03;6.60;99.90
21830;DHT22;11077;50.264;6.798;2023-11-21T09:31:31;6.60;99.90
21830;DHT22;11077;50.264;6.798;2023-11-21T09:33:59;6.60;99.90
21830;DHT22;11077;50.264;6.798;2023-11-21T09:36:29;6.60;99.90
21830;DHT22;11077;50.264;6.798;2023-11-21T09:38:57;6.70;99.90
21830;DHT22;11077;50.264;6.798;2023-11-21T09:41:37;6.70;99.90
21830;DHT22;11077;50.264;6.798;2023-11-21T09:44:09;6.70;99.90
21830;DHT22;11077;50.264;6.798;2023-11-21T09:46:37;6.70;99.90
21830;DHT22;11077;50.264;6.798;2023-11-21T09:49:09;6.70;99.90
21830;DHT22;11077;50.264;6.798;2023-11-21T09:51:42;6.80;99.90
21830;DHT22;11077;50.264;6.798;2023-11-21T09:54:11;6.80;99.90
21830;DHT22;11077;50.264;6.798;2023-11-21T09:56:38;6.80;99.90
21830;DHT22;11077;50.264;6.798;2023-11-21T09:59:06;6.80;99.90
21830;DHT22;11077;50.264;6.798;2023-11-21T10:01:36;6.80;99.90
21830;DHT22;11077;50.264;6.798;2023-11-21T10:04:05;6.80;99.90
21830;DHT22;11077;50.264;6.798;2023-11-21T10:06:40;6.90;99.90
21830;DHT22;11077;50.264;6.798;2023-11-21T10:09:10;6.80;99.90
21830;DHT22;11077;50.264;6.798;2023-11-21T10:11:40;6.90;99.90
21830;DHT22;11077;50.264;6.798;2023-11-21T10:14:10;6.90;99.90
21830;DHT22;11077;50.264;6.798;2023-11-21T10:16:40;6.90;99.90
21830;DHT22;11077;50.264;6.798;2023-11-21T10:19:10;6.90;99.90
21830;DHT22;11077;50.264;6.798;2023-11-21T10:21:51;7.00;99.90
21830;DHT22;11077;50.264;6.798;2023-11-21T10:24:20;7.00;99.90
21830;DHT22;11077;50.264;6.798;2023-11-21T10:26:48;7.00;99.90
21830;DHT22;11077;50.264;6.798;2023-11-21T10:29:16;7.00;99.90
21830;DHT22;11077;50.264;6.798;2023-11-21T10:31:44;7.10;99.90
21830;DHT22;11077;50.264;6.798;2023-11-21T10:34:13;7.10;99.90
21830;DHT22;11077;50.264;6.798;2023-11-21T10:36:41;7.20;99.90
21830;DHT22;11077;50.264;6.798;2023-11-21T10:39:12;7.20;99.90
21830;DHT22;11077;50.264;6.798;2023-11-21T10:41:43;7.30;99.90
21830;DHT22;11077;50.264;6.798;2023-11-21T10:44:13;7.30;99.90
21830;DHT22;11077;50.264;6.798;2023-11-21T10:46:46;7.40;99.90
21830;DHT22;11077;50.264;6.798;2023-11-21T10:49:17;7.50;99.90
21830;DHT22;11077;50.264;6.798;2023-11-21T10:51:44;7.50;99.90
21830;DHT22;11077;50.264;6.798;2023-11-21T10:54:19;7.60;99.90
21830;DHT22;11077;50.264;6.798;2023-11-21T10:56:49;7.60;99.90
21830;DHT22;11077;50.264;6.798;2023-11-21T10:59:17;7.70;99.90
21830;DHT22;11077;50.264;6.798;2023-11-21T11:01:46;7.70;99.90
21830;DHT22;11077;50.264;6.798;2023-11-21T11:04:15;7.80;99.90
21830;DHT22;11077;50.264;6.798;2023-11-21T11:06:46;7.80;99.90
21830;DHT22;11077;50.264;6.798;2023-11-21T11:09:18;7.80;99.90
21830;DHT22;11077;50.264;6.798;2023-11-21T11:11:46;7.90;99.90
21830;DHT22;11077;50.264;6.798;2023-11-21T11:14:14;7.90;99.90
21830;DHT22;11077;50.264;6.798;2023-11-21T11:16:42;7.90;99.90
21830;DHT22;11077;50.264;6.798;2023-11-21T11:19:11;7.90;99.90
21830;DHT22;11077;50.264;6.798;2023-11-21T11:21:46;8.00;99.90
21830;DHT22;11077;50.264;6.798;2023-11-21T11:27:24;8.10;99.90
21830;DHT22;11077;50.264;6.798;2023-11-21T11:30:01;8.10;99.90
21830;DHT22;11077;50.264;6.798;2023-11-21T11:32:40;8.10;99.90
21830;DHT22;11077;50.264;6.798;2023-11-21T11:35:13;8.20;99.90
21830;DHT22;11077;50.264;6.798;2023-11-21T11:37:43;8.10;99.90
21830;DHT22;11077;50.264;6.798;2023-11-21T11:40:12;8.10;99.90
21830;DHT22;11077;50.264;6.798;2023-11-21T11:42:55;8.20;99.90
21830;DHT22;11077;50.264;6.798;2023-11-21T11:45:31;8.20;99.90
21830;DHT22;11077;50.264;6.798;2023-11-21T11:48:00;8.20;99.90
21830;DHT22;11077;50.264;6.798;2023-11-21T11:50:27;8.20;99.90
21830;DHT22;11077;50.264;6.798;2023-11-21T11:53:12;8.30;99.90
21830;DHT22;11077;50.264;6.798;2023-11-21T11:55:41;8.20;99.90
21830;DHT22;11077;50.264;6.798;2023-11-21T11:58:08;8.20;99.90
21830;DHT22;11077;50.264;6.798;2023-11-21T12:00:36;8.30;99.90
21830;DHT22;11077;50.264;6.798;2023-11-21T12:03:07;8.40;99.90
21830;DHT22;11077;50.264;6.798;2023-11-21T12:05:35;8.40;99.90
21830;DHT22;11077;50.264;6.798;2023-11-21T12:08:05;8.40;99.90
21830;DHT22;11077;50.264;6.798;2023-11-21T12:10:36;8.40;99.90
21830;DHT22;11077;50.264;6.798;2023-11-21T12:13:08;8.40;99.90
21830;DHT22;11077;50.264;6.798;2023-11-21T12:15:36;8.50;99.90
21830;DHT22;11077;50.264;6.798;2023-11-21T12:18:04;8.60;99.90
21830;DHT22;11077;50.264;6.798;2023-11-21T12:20:32;8.60;99.90
21830;DHT22;11077;50.264;6.798;2023-11-21T12:23:05;8.60;99.90
21830;DHT22;11077;50.264;6.798;2023-11-21T12:25:32;8.70;99.90
21830;DHT22;11077;50.264;6.798;2023-11-21T12:28:01;8.60;99.90
21830;DHT22;11077;50.264;6.798;2023-11-21T12:30:31;8.60;99.90
21830;DHT22;11077;50.264;6.798;2023-11-21T12:32:59;8.60;99.90
21830;DHT22;11077;50.264;6.798;2023-11-21T12:35:29;8.50;99.90
21830;DHT22;11077;50.264;6.798;2023-11-21T12:37:56;8.40;99.90
21830;DHT22;11077;50.264;6.798;2023-11-21T12:40:24;8.40;99.90
21830;DHT22;11077;50.264;6.798;2023-11-21T12:42:54;8.40;99.90
21830;DHT22;11077;50.264;6.798;2023-11-21T12:45:22;8.30;99.90
21830;DHT22;11077;50.264;6.798;2023-11-21T12:47:55;8.30;99.90
21830;DHT22;11077;50.264;6.798;2023-11-21T12:50:24;8.30;99.90
21830;DHT22;11077;50.264;6.798;2023-11-21T12:52:57;8.20;99.90
21830;DHT22;11077;50.264;6.798;2023-11-21T12:55:25;8.20;99.90
21830;DHT22;11077;50.264;6.798;2023-11-21T12:57:53;8.20;99.90
21830;DHT22;11077;50.264;6.798;2023-11-21T13:00:28;8.30;99.90
21830;DHT22;11077;50.264;6.798;2023-11-21T13:02:58;8.30;99.90
21830;DHT22;11077;50.264;6.798;2023-11-21T13:05:30;8.20;99.90
21830;DHT22;11077;50.264;6.798;2023-11-21T13:08:00;8.20;99.90
21830;DHT22;11077;50.264;6.798;2023-11-21T13:10:30;8.20;99.90
21830;DHT22;11077;50.264;6.798;2023-11-21T13:12:58;8.20;99.90
21830;DHT22;11077;50.264;6.798;2023-11-21T13:15:27;8.20;99.90
21830;DHT22;11077;50.264;6.798;2023-11-21T13:17:59;8.20;99.90
21830;DHT22;11077;50.264;6.798;2023-11-21T13:20:26;8.20;99.90
21830;DHT22;11077;50.264;6.798;2023-11-21T13:22:56;8.20;99.90
21830;DHT22;11077;50.264;6.798;2023-11-21T13:25:25;8.10;99.90
21830;DHT22;11077;50.264;6.798;2023-11-21T13:27:53;8.10;99.90
21830;DHT22;11077;50.264;6.798;2023-11-21T13:30:20;8.10;99.90
21830;DHT22;11077;50.264;6.798;2023-11-21T13:32:49;8.20;99.90
21830;DHT22;11077;50.264;6.798;2023-11-21T13:35:19;8.20;99.90
21830;DHT22;11077;50.264;6.798;2023-11-21T13:37:50;8.10;99.90
21830;DHT22;11077;50.264;6.798;2023-11-21T13:40:22;8.10;99.90
21830;DHT22;11077;50.264;6.798;2023-11-21T13:42:53;8.20;99.90
21830;DHT22;11077;50.264;6.798;2023-11-21T13:45:21;8.10;99.90
21830;DHT22;11077;50.264;6.798;2023-11-21T13:47:50;8.10;99.90
21830;DHT22;11077;50.264;6.798;2023-11-21T13:50:20;8.10;99.90
21830;DHT22;11077;50.264;6.798;2023-11-21T13:52:51;8.10;99.90
21830;DHT22;11077;50.264;6.798;2023-11-21T13:55:20;8.00;99.90
21830;DHT22;11077;50.264;6.798;2023-11-21T13:57:53;7.90;99.90
21830;DHT22;11077;50.264;6.798;2023-11-21T14:00:27;7.90;99.90
21830;DHT22;11077;50.264;6.798;2023-11-21T14:03:08;7.90;99.90
21830;DHT22;11077;50.264;6.798;2023-11-21T14:05:45;7.90;99.90
21830;DHT22;11077;50.264;6.798;2023-11-21T14:08:18;7.90;99.90
21830;DHT22;11077;50.264;6.798;2023-11-21T14:10:47;7.90;99.90
21830;DHT22;11077;50.264;6.798;2023-11-21T14:13:21;7.90;99.90
21830;DHT22;11077;50.264;6.798;2023-11-21T14:15:49;7.90;99.90
21830;DHT22;11077;50.264;6.798;2023-11-21T14:18:23;7.80;99.90
21830;DHT22;11077;50.264;6.798;2023-11-21T14:20:57;7.80;99.90
21830;DHT22;11077;50.264;6.798;2023-11-21T14:23:25;7.80;99.90
21830;DHT22;11077;50.264;6.798;2023-11-21T14:25:52;7.70;99.90
21830;DHT22;11077;50.264;6.798;2023-11-21T14:28:19;7.70;99.90
21830;DHT22;11077;50.264;6.798;2023-11-21T14:30:47;7.70;99.90
21830;DHT22;11077;50.264;6.798;2023-11-21T14:33:14;7.70;99.90
21830;DHT22;11077;50.264;6.798;2023-11-21T14:35:42;7.70;99.90
21830;DHT22;11077;50.264;6.798;2023-11-21T14:38:12;7.70;99.90
21830;DHT22;11077;50.264;6.798;2023-11-21T14:40:40;7.60;99.90
21830;DHT22;11077;50.264;6.798;2023-11-21T14:43:07;7.60;99.90
21830;DHT22;11077;50.264;6.798;2023-11-21T14:45:35;7.60;99.90
21830;DHT22;11077;50.264;6.798;2023-11-21T14:48:02;7.60;99.90
21830;DHT22;11077;50.264;6.798;2023-11-21T14:50:37;7.50;99.90
21830;DHT22;11077;50.264;6.798;2023-11-21T14:53:19;7.50;99.90
21830;DHT22;11077;50.264;6.798;2023-11-21T14:56:07;7.50;99.90
21830;DHT22;11077;50.264;6.798;2023-11-21T14:58:35;7.40;99.90
21830;DHT22;11077;50.264;6.798;2023-11-21T15:01:02;7.40;99.90
21830;DHT22;11077;50.264;6.798;2023-11-21T15:03:30;7.40;99.90
21830;DHT22;11077;50.264;6.798;2023-11-21T15:06:17;7.40;99.90
21830;DHT22;11077;50.264;6.798;2023-11-21T15:08:54;7.40;99.90
21830;DHT22;11077;50.264;6.798;2023-11-21T15:11:43;7.40;99.90
21830;DHT22;11077;50.264;6.798;2023-11-21T15:14:10;7.40;99.90
21830;DHT22;11077;50.264;6.798;2023-11-21T15:16:42;7.40;99.90
21830;DHT22;11077;50.264;6.798;2023-11-21T15:19:15;7.30;99.90
21830;DHT22;11077;50.264;6.798;2023-11-21T15:21:44;7.30;99.90
21830;DHT22;11077;50.264;6.798;2023-11-21T15:24:13;7.30;99.90
21830;DHT22;11077;50.264;6.798;2023-11-21T15:26:41;7.30;99.90
21830;DHT22;11077;50.264;6.798;2023-11-21T15:29:08;7.30;99.90
21830;DHT22;11077;50.264;6.798;2023-11-21T15:31:36;7.30;99.90
21830;DHT22;11077;50.264;6.798;2023-11-21T15:34:04;7.20;99.90
21830;DHT22;11077;50.264;6.798;2023-11-21T15:36:32;7.20;99.90
21830;DHT22;11077;50.264;6.798;2023-11-21T15:38:59;7.20;99.90
21830;DHT22;11077;50.264;6.798;2023-11-21T15:41:28;7.20;99.90
21830;DHT22;11077;50.264;6.798;2023-11-21T15:43:55;7.20;99.90
21830;DHT22;11077;50.264;6.798;2023-11-21T15:46:22;7.20;99.90
21830;DHT22;11077;50.264;6.798;2023-11-21T15:48:49;7.20;99.90
21830;DHT22;11077;50.264;6.798;2023-11-21T15:51:20;7.20;99.90
21830;DHT22;11077;50.264;6.798;2023-11-21T15:53:47;7.10;99.90
21830;DHT22;11077;50.264;6.798;2023-11-21T15:56:14;7.10;99.90
21830;DHT22;11077;50.264;6.798;2023-11-21T15:58:45;7.10;99.90
21830;DHT22;11077;50.264;6.798;2023-11-21T16:01:12;7.10;99.90
21830;DHT22;11077;50.264;6.798;2023-11-21T16:03:40;7.10;99.90
21830;DHT22;11077;50.264;6.798;2023-11-21T16:06:12;7.10;99.90
21830;DHT22;11077;50.264;6.798;2023-11-21T16:08:41;7.10;99.90